Time;durP1;ratioP1;P1;durP2;ratioP2;P2;SDS_P1;SDS_P2;PMS_P1;PMS_P2;Temp;Humidity;BMP_temperature;BMP_pressure;BME280_temperature;BME280_humidity;BME280_pressure;Samples;Min_cycle;Max_cycle;Signal;HPM_P1;HPM_P2
2021/06/15 00:02:41;;;;;;;3.60;3.03;;;;;;;11.75;56.35;100469.91;153974;1094;103129;-75
2021/06/15 00:05:46;;;;;;;4.80;3.10;;;;;;;11.71;56.86;100469.38;153925;1101;103222;-74
2021/06/15 00:08:51;;;;;;;4.20;3.00;;;;;;;11.64;55.98;100462.95;153962;1101;103131;-78
2021/06/15 00:11:56;;;;;;;3.90;2.98;;;;;;;11.63;55.75;100460.47;153979;1095;103304;-78
2021/06/15 00:15:02;;;;;;;4.45;3.18;;;;;;;11.60;56.85;100472.28;154012;1101;103218;-79
2021/06/15 00:18:07;;;;;;;3.80;3.20;;;;;;;11.58;55.92;100467.09;154015;1101;103471;-79
2021/06/15 00:21:13;;;;;;;3.70;2.87;;;;;;;11.62;56.53;100474.81;153925;1101;103128;-77
2021/06/15 00:24:18;;;;;;;4.10;3.20;;;;;;;11.58;56.22;100480.45;153968;1101;103275;-78
2021/06/15 00:27:24;;;;;;;3.83;2.83;;;;;;;11.57;56.44;100483.30;153940;1101;103200;-78
2021/06/15 00:30:29;;;;;;;4.50;3.03;;;;;;;11.56;56.85;100474.42;153985;1096;103557;-78
2021/06/15 00:33:34;;;;;;;4.43;3.30;;;;;;;11.53;56.73;100479.27;153934;1096;103203;-77
2021/06/15 00:36:39;;;;;;;4.45;3.30;;;;;;;11.49;56.80;100469.84;153937;1101;103237;-81
2021/06/15 00:39:47;;;;;;;4.23;3.50;;;;;;;11.47;57.06;100471.84;153957;1095;103516;-81
2021/06/15 00:42:52;;;;;;;3.90;3.50;;;;;;;11.44;57.08;100466.81;153951;1101;103203;-80
2021/06/15 00:45:57;;;;;;;3.70;3.27;;;;;;;11.42;56.63;100468.80;154057;1096;103198;-77
2021/06/15 00:49:03;;;;;;;3.93;3.38;;;;;;;11.39;56.51;100460.11;153936;1101;103480;-74
2021/06/15 00:52:10;;;;;;;4.47;3.23;;;;;;;11.34;56.70;100451.70;153951;1101;103160;-76
2021/06/15 00:55:16;;;;;;;5.23;3.20;;;;;;;11.29;57.36;100453.15;154006;1095;103199;-75
2021/06/15 00:58:22;;;;;;;3.90;2.90;;;;;;;11.27;57.18;100455.97;154006;1096;103279;-75
2021/06/15 01:01:27;;;;;;;4.90;3.47;;;;;;;11.24;57.47;100453.63;154010;1096;103209;-78
2021/06/15 01:04:32;;;;;;;4.33;3.47;;;;;;;11.18;57.53;100452.39;153928;1101;103314;-74
2021/06/15 01:07:46;;;;;;;3.63;3.00;;;;;;;11.13;57.04;100445.83;153926;1101;103131;-75
2021/06/15 01:11:01;;;;;;;4.83;3.07;;;;;;;11.11;56.93;100437.13;153967;1101;103190;-75
2021/06/15 01:14:16;;;;;;;4.30;3.08;;;;;;;11.10;57.73;100430.09;153992;1093;103580;-75
2021/06/15 01:17:29;;;;;;;3.58;3.08;;;;;;;11.05;57.69;100435.91;153965;1096;103172;-74
2021/06/15 01:20:38;;;;;;;4.30;3.30;;;;;;;11.03;57.46;100437.03;154000;1093;103216;-75
2021/06/15 01:24:12;;;;;;;4.07;3.10;;;;;;;11.00;56.84;100436.34;153971;1101;103195;-75
2021/06/15 01:27:39;;;;;;;5.90;2.88;;;;;;;11.05;57.46;100446.59;154037;1095;103147;-75
2021/06/15 01:30:54;;;;;;;5.10;3.70;;;;;;;11.11;57.29;100447.81;154007;1101;103251;-75
2021/06/15 01:34:04;;;;;;;3.43;2.87;;;;;;;11.16;57.11;100453.52;154015;1093;103195;-81
2021/06/15 01:37:13;;;;;;;5.57;3.20;;;;;;;11.19;57.45;100442.55;153969;1094;103157;-79
2021/06/15 01:40:24;;;;;;;3.67;3.20;;;;;;;11.18;57.17;100435.51;154075;1101;103129;-79
2021/06/15 01:43:47;;;;;;;5.20;3.25;;;;;;;11.16;57.90;100446.37;154118;1093;103110;-77
2021/06/15 01:46:59;;;;;;;4.03;3.27;;;;;;;11.15;57.18;100446.52;153993;1093;103150;-77
2021/06/15 01:50:10;;;;;;;4.07;2.93;;;;;;;11.12;57.56;100454.81;154018;1093;103151;-76
2021/06/15 01:53:18;;;;;;;4.75;3.45;;;;;;;11.07;57.33;100449.95;153963;1097;103157;-77
2021/06/15 01:56:26;;;;;;;4.23;3.40;;;;;;;11.02;57.78;100452.22;153968;1093;103118;-78
2021/06/15 01:59:35;;;;;;;4.57;3.60;;;;;;;10.95;58.17;100437.78;153964;1093;103195;-78
2021/06/15 02:02:43;;;;;;;5.10;3.20;;;;;;;10.91;57.71;100442.61;154019;1094;103124;-78
2021/06/15 02:05:52;;;;;;;4.40;3.30;;;;;;;10.87;58.02;100435.87;153988;1101;103189;-77
2021/06/15 02:09:00;;;;;;;4.97;3.43;;;;;;;10.85;58.22;100445.02;153974;1093;103221;-77
2021/06/15 02:12:19;;;;;;;4.50;3.30;;;;;;;10.84;57.96;100446.86;153957;1101;103151;-77
2021/06/15 02:15:44;;;;;;;5.27;3.70;;;;;;;10.85;57.37;100445.86;153958;1101;103139;-80
2021/06/15 02:19:08;;;;;;;5.20;3.30;;;;;;;10.85;58.16;100439.69;153967;1101;103245;-79
2021/06/15 02:22:21;;;;;;;5.60;3.77;;;;;;;10.82;58.32;100446.18;153960;1093;103135;-82
2021/06/15 02:25:31;;;;;;;5.20;3.60;;;;;;;10.77;57.88;100449.28;154115;1101;103279;-82
2021/06/15 02:28:38;;;;;;;4.93;3.97;;;;;;;10.78;58.15;100445.63;154005;1101;103190;-79
2021/06/15 02:31:48;;;;;;;5.35;3.60;;;;;;;10.79;58.13;100446.47;153995;1093;103129;-78
2021/06/15 02:34:55;;;;;;;5.10;3.70;;;;;;;10.78;57.74;100450.14;153961;1101;103301;-79
2021/06/15 02:38:07;;;;;;;5.83;3.60;;;;;;;10.81;58.40;100449.83;154369;1101;103304;-83
2021/06/15 02:41:16;;;;;;;5.10;3.47;;;;;;;10.84;58.30;100449.53;154257;1093;103127;-79
2021/06/15 02:44:22;;;;;;;4.43;3.70;;;;;;;10.89;58.23;100451.74;154188;1093;103151;-73
2021/06/15 02:47:35;;;;;;;5.15;3.40;;;;;;;10.94;58.50;100460.98;154141;1095;103196;-73
2021/06/15 02:50:41;;;;;;;5.07;4.00;;;;;;;10.92;58.28;100454.95;154101;1094;103234;-73
2021/06/15 02:53:53;;;;;;;5.00;3.90;;;;;;;10.97;58.85;100459.83;153982;1093;103128;-73
2021/06/15 02:57:01;;;;;;;5.07;3.77;;;;;;;11.00;58.45;100457.70;153975;1101;103099;-73
2021/06/15 03:00:11;;;;;;;5.38;3.73;;;;;;;11.01;58.31;100461.23;154002;1093;103221;-74
2021/06/15 03:03:17;;;;;;;4.93;3.80;;;;;;;11.08;58.56;100459.62;154092;1101;103192;-74
2021/06/15 03:06:22;;;;;;;5.47;4.43;;;;;;;11.15;58.92;100466.05;153955;1101;103192;-73
2021/06/15 03:09:28;;;;;;;4.70;3.40;;;;;;;11.21;58.19;100461.92;154044;1101;103135;-75
2021/06/15 03:12:41;;;;;;;5.43;3.30;;;;;;;11.34;58.62;100462.39;153991;1101;103221;-73
2021/06/15 03:15:49;;;;;;;4.53;3.35;;;;;;;11.51;58.90;100460.70;154076;1101;103164;-75
2021/06/15 03:19:04;;;;;;;4.43;3.60;;;;;;;11.76;58.98;100455.56;154068;1094;103132;-75
2021/06/15 03:22:15;;;;;;;5.23;3.83;;;;;;;12.11;58.83;100456.48;154659;1101;103307;-76
2021/06/15 03:25:26;;;;;;;4.70;3.45;;;;;;;12.40;58.29;100461.48;154030;1101;103199;-78
2021/06/15 03:28:37;;;;;;;4.73;3.58;;;;;;;12.73;58.40;100456.27;154026;1101;103596;-75
2021/06/15 03:31:45;;;;;;;5.53;3.93;;;;;;;13.08;57.75;100448.98;153940;1101;103177;-76
2021/06/15 03:34:58;;;;;;;6.80;4.07;;;;;;;13.32;58.12;100456.27;153988;1093;103128;-75
2021/06/15 03:38:07;;;;;;;5.40;4.35;;;;;;;13.66;57.88;100450.72;154012;1101;103264;-77
2021/06/15 03:41:15;;;;;;;5.70;4.10;;;;;;;13.93;57.89;100451.38;153981;1093;103125;-76
2021/06/15 03:44:22;;;;;;;5.30;3.90;;;;;;;14.25;57.69;100455.00;153923;1093;103216;-75
2021/06/15 03:47:30;;;;;;;5.45;4.43;;;;;;;14.51;57.63;100455.59;153961;1101;103120;-76
2021/06/15 03:50:37;;;;;;;6.40;4.20;;;;;;;14.75;57.50;100453.83;153991;1093;103236;-75
2021/06/15 03:53:43;;;;;;;6.78;4.28;;;;;;;15.03;57.38;100453.33;153987;1093;103294;-76
2021/06/15 03:56:50;;;;;;;5.25;4.03;;;;;;;15.25;57.68;100447.14;154026;1096;103231;-76
2021/06/15 03:59:56;;;;;;;5.00;4.13;;;;;;;15.50;57.63;100449.66;153968;1101;103221;-76
2021/06/15 04:03:04;;;;;;;4.95;4.03;;;;;;;15.70;57.54;100455.36;153971;1096;103147;-76
2021/06/15 04:06:12;;;;;;;4.80;4.00;;;;;;;15.93;57.54;100459.90;153967;1101;103222;-76
2021/06/15 04:09:19;;;;;;;5.07;3.80;;;;;;;16.17;57.54;100456.14;153929;1101;103280;-76
2021/06/15 04:12:28;;;;;;;5.40;4.17;;;;;;;16.42;57.51;100454.00;153988;1101;103192;-76
2021/06/15 04:15:34;;;;;;;5.10;3.85;;;;;;;16.65;57.26;100461.97;153995;1096;103227;-77
2021/06/15 04:18:44;;;;;;;4.73;3.63;;;;;;;16.87;57.27;100463.70;153952;1101;103178;-77
2021/06/15 04:21:52;;;;;;;6.10;3.98;;;;;;;17.15;57.48;100463.00;153977;1096;103218;-76
2021/06/15 04:24:59;;;;;;;3.95;3.35;;;;;;;17.44;57.29;100456.64;153957;1101;103221;-76
2021/06/15 04:28:06;;;;;;;4.53;3.93;;;;;;;17.72;57.33;100455.02;153968;1101;103133;-77
2021/06/15 04:31:13;;;;;;;5.88;3.90;;;;;;;17.96;57.36;100448.39;153996;1101;103088;-76
2021/06/15 04:34:22;;;;;;;4.23;3.70;;;;;;;18.16;57.28;100449.34;153957;1101;103125;-77
2021/06/15 04:37:30;;;;;;;4.33;3.67;;;;;;;18.38;57.24;100452.81;153951;1095;103192;-76
2021/06/15 04:40:40;;;;;;;6.30;4.28;;;;;;;18.45;57.18;100448.25;153989;1095;103265;-78
2021/06/15 04:43:50;;;;;;;5.53;4.10;;;;;;;18.53;57.43;100449.13;153996;1096;103195;-77
2021/06/15 04:46:59;;;;;;;4.43;3.70;;;;;;;18.69;57.45;100456.05;153983;1101;103216;-76
2021/06/15 04:50:11;;;;;;;5.83;4.30;;;;;;;18.88;57.57;100459.91;153960;1101;103136;-77
2021/06/15 04:53:19;;;;;;;5.10;4.30;;;;;;;19.02;57.52;100462.45;153971;1094;103604;-76
2021/06/15 04:56:25;;;;;;;7.13;4.60;;;;;;;19.14;57.82;100459.98;153987;1101;103365;-77
2021/06/15 04:59:34;;;;;;;6.50;4.33;;;;;;;19.30;57.82;100455.23;154036;1101;103195;-77
2021/06/15 05:02:42;;;;;;;6.30;4.70;;;;;;;19.50;57.58;100466.93;153924;1097;103099;-77
2021/06/15 05:05:49;;;;;;;7.43;5.27;;;;;;;19.71;57.24;100470.49;153922;1096;103195;-77
2021/06/15 05:08:58;;;;;;;7.33;5.43;;;;;;;19.92;56.23;100472.16;153938;1101;103564;-78
2021/06/15 05:12:06;;;;;;;7.93;5.83;;;;;;;19.99;55.76;100468.40;153931;1101;103365;-77
2021/06/15 05:15:15;;;;;;;6.98;5.48;;;;;;;20.03;55.91;100462.58;154038;1095;103216;-77
2021/06/15 05:18:24;;;;;;;7.65;5.73;;;;;;;20.13;55.74;100463.83;154002;1101;103131;-77
2021/06/15 05:21:35;;;;;;;7.83;5.63;;;;;;;20.13;55.46;100474.66;153959;1097;103106;-78
2021/06/15 05:24:52;;;;;;;9.70;5.48;;;;;;;20.07;55.07;100480.07;153982;1101;103215;-77
2021/06/15 05:27:57;;;;;;;9.57;5.50;;;;;;;19.94;55.01;100476.34;153933;1101;103213;-77
2021/06/15 05:31:03;;;;;;;7.35;5.60;;;;;;;19.82;54.90;100461.75;153977;1101;103155;-76
2021/06/15 05:34:08;;;;;;;7.90;5.77;;;;;;;19.72;55.06;100469.47;153951;1101;103129;-77
2021/06/15 05:37:13;;;;;;;7.03;5.53;;;;;;;19.66;55.09;100467.56;153951;1097;103242;-77
2021/06/15 05:40:20;;;;;;;7.17;4.77;;;;;;;19.76;55.09;100463.41;153930;1094;103114;-77
2021/06/15 05:43:25;;;;;;;7.98;5.65;;;;;;;19.95;54.67;100469.87;153957;1095;103294;-76
2021/06/15 05:46:30;;;;;;;6.83;4.95;;;;;;;20.06;54.15;100473.00;153951;1097;103094;-76
2021/06/15 05:49:36;;;;;;;6.77;4.97;;;;;;;20.17;54.26;100470.48;154040;1097;103152;-76
2021/06/15 05:52:41;;;;;;;7.05;5.00;;;;;;;20.33;54.34;100471.08;153942;1093;103614;-75
2021/06/15 05:55:46;;;;;;;6.88;4.93;;;;;;;20.49;54.29;100477.91;153969;1097;103247;-75
2021/06/15 05:58:52;;;;;;;8.50;4.80;;;;;;;20.64;54.12;100473.09;153937;1101;103203;-75
2021/06/15 06:01:58;;;;;;;6.03;4.88;;;;;;;20.75;54.49;100475.14;154061;1101;103123;-76
2021/06/15 06:08:04;;;;;;;6.93;5.37;;;;;;;20.87;54.01;100469.05;153953;1096;103133;-75
2021/06/15 06:08:31;;;;;;;8.17;4.93;;;;;;;20.93;53.81;100474.42;153988;1097;103104;-76
2021/06/15 06:11:36;;;;;;;8.40;5.47;;;;;;;20.97;53.69;100477.55;153949;1101;103218;-75
2021/06/15 06:14:41;;;;;;;9.37;5.87;;;;;;;21.00;53.58;100479.84;153986;1094;103500;-75
2021/06/15 06:17:47;;;;;;;5.88;4.90;;;;;;;21.02;53.19;100483.16;154009;1101;103221;-76
2021/06/15 06:20:52;;;;;;;8.07;5.10;;;;;;;21.02;53.58;100485.88;154198;1097;103141;-74
2021/06/15 06:23:57;;;;;;;9.67;5.40;;;;;;;21.02;53.04;100491.30;153938;1096;103131;-76
2021/06/15 06:27:02;;;;;;;8.13;5.00;;;;;;;21.01;52.12;100497.77;153967;1101;103266;-75
2021/06/15 06:30:09;;;;;;;6.75;4.78;;;;;;;21.04;52.08;100491.09;153919;1101;103292;-75
2021/06/15 06:33:14;;;;;;;5.23;4.67;;;;;;;21.09;52.50;100489.36;153997;1101;103142;-75
2021/06/15 06:36:20;;;;;;;7.08;4.83;;;;;;;21.11;51.11;100491.87;153936;1101;103551;-76
2021/06/15 06:39:25;;;;;;;6.33;4.87;;;;;;;21.09;50.67;100492.08;153929;1096;104362;-75
2021/06/15 06:42:30;;;;;;;6.60;4.65;;;;;;;21.23;51.71;100500.15;153942;1101;103181;-75
2021/06/15 06:45:35;;;;;;;8.20;5.25;;;;;;;21.30;50.18;100499.06;153960;1101;103389;-75
2021/06/15 06:48:40;;;;;;;6.03;4.57;;;;;;;21.35;49.30;100499.25;153984;1097;103260;-75
2021/06/15 06:51:45;;;;;;;7.00;5.00;;;;;;;21.49;49.70;100496.48;153949;1097;103221;-76
2021/06/15 06:54:51;;;;;;;6.80;5.30;;;;;;;21.59;49.23;100493.28;153948;1101;103147;-75
2021/06/15 06:57:56;;;;;;;8.50;5.23;;;;;;;21.67;48.53;100482.14;153962;1095;103224;-75
2021/06/15 07:01:01;;;;;;;6.58;4.83;;;;;;;21.70;48.44;100487.14;153892;1097;103287;-75
2021/06/15 07:04:06;;;;;;;6.45;4.73;;;;;;;21.70;48.80;100489.86;154025;1094;103523;-74
2021/06/15 07:07:11;;;;;;;6.68;4.90;;;;;;;21.84;49.36;100483.25;154072;1101;103526;-75
2021/06/15 07:10:17;;;;;;;7.15;5.10;;;;;;;22.10;46.85;100490.35;153942;1101;103519;-75
2021/06/15 07:13:23;;;;;;;8.60;5.30;;;;;;;22.19;47.54;100485.47;154024;1095;103144;-75
2021/06/15 07:16:28;;;;;;;7.40;5.08;;;;;;;22.34;48.90;100485.98;153934;1101;103274;-75
2021/06/15 07:19:33;;;;;;;5.83;4.45;;;;;;;22.55;49.04;100479.23;153991;1097;103193;-75
2021/06/15 07:22:40;;;;;;;7.30;4.97;;;;;;;22.63;47.84;100483.54;153978;1101;103215;-75
2021/06/15 07:25:45;;;;;;;7.23;4.90;;;;;;;22.53;46.28;100478.63;153953;1101;103129;-75
2021/06/15 07:28:50;;;;;;;6.63;5.10;;;;;;;22.65;46.57;100480.59;153962;1096;103225;-75
2021/06/15 07:31:56;;;;;;;5.90;4.60;;;;;;;22.86;47.55;100471.95;153922;1101;103251;-75
2021/06/15 07:35:01;;;;;;;6.18;4.95;;;;;;;22.97;45.35;100477.70;153999;1097;103250;-75
2021/06/15 07:38:06;;;;;;;7.03;4.77;;;;;;;22.88;46.55;100479.90;153939;1101;103174;-75
2021/06/15 07:41:11;;;;;;;7.23;4.97;;;;;;;22.88;46.81;100478.03;153947;1101;103148;-75
2021/06/15 07:44:17;;;;;;;7.20;5.03;;;;;;;22.89;44.68;100478.86;153959;1101;103195;-75
2021/06/15 07:47:22;;;;;;;7.00;5.00;;;;;;;22.67;45.17;100479.33;153979;1096;103288;-75
2021/06/15 07:50:27;;;;;;;7.10;4.80;;;;;;;22.56;46.78;100477.38;153979;1096;103194;-75
2021/06/15 07:53:33;;;;;;;6.80;5.03;;;;;;;22.72;46.10;100481.36;153931;1101;103198;-75
2021/06/15 07:56:38;;;;;;;7.20;5.13;;;;;;;22.87;44.52;100478.25;153950;1101;103195;-74
2021/06/15 07:59:43;;;;;;;6.40;4.77;;;;;;;22.98;45.65;100477.48;153974;1101;103145;-75
2021/06/15 08:02:48;;;;;;;6.63;4.90;;;;;;;23.06;44.00;100469.02;153951;1101;103272;-75
2021/06/15 08:05:54;;;;;;;7.33;5.57;;;;;;;23.05;43.75;100470.07;154036;1101;103118;-75
2021/06/15 08:08:59;;;;;;;7.20;5.20;;;;;;;23.04;44.80;100475.77;154043;1101;103135;-75
2021/06/15 08:12:05;;;;;;;7.78;4.88;;;;;;;22.94;43.82;100473.53;153954;1101;103154;-75
2021/06/15 08:15:12;;;;;;;5.90;4.50;;;;;;;22.84;44.97;100474.08;153924;1097;103190;-75
2021/06/15 08:18:18;;;;;;;7.03;4.90;;;;;;;22.83;45.37;100471.61;153997;1096;103171;-75
2021/06/15 08:21:23;;;;;;;5.63;4.80;;;;;;;22.85;44.75;100478.48;154053;1101;103242;-75
2021/06/15 08:24:28;;;;;;;5.55;4.50;;;;;;;22.87;45.27;100476.36;153950;1101;103132;-75
2021/06/15 08:27:35;;;;;;;5.67;4.27;;;;;;;22.97;45.02;100472.27;153951;1101;103190;-75
2021/06/15 08:30:41;;;;;;;5.03;4.40;;;;;;;23.03;44.55;100472.19;153986;1096;103150;-76
2021/06/15 08:33:46;;;;;;;6.70;4.77;;;;;;;23.06;45.04;100474.47;153961;1101;103304;-75
2021/06/15 08:36:51;;;;;;;6.78;4.68;;;;;;;23.22;44.97;100472.16;153974;1097;103113;-75
2021/06/15 08:39:56;;;;;;;8.23;5.03;;;;;;;23.41;44.59;100472.93;153933;1101;103163;-75
2021/06/15 08:43:01;;;;;;;5.83;4.40;;;;;;;23.58;44.25;100468.47;153990;1097;103553;-75
2021/06/15 08:46:07;;;;;;;6.83;5.03;;;;;;;23.66;42.85;100467.30;153957;1097;103128;-75
2021/06/15 08:49:12;;;;;;;6.90;4.90;;;;;;;23.76;43.88;100469.44;153914;1101;103207;-76
2021/06/15 08:52:17;;;;;;;8.23;5.13;;;;;;;24.01;43.59;100463.80;153983;1101;103224;-75
2021/06/15 08:55:28;;;;;;;5.77;4.60;;;;;;;24.07;42.97;100454.67;153950;1101;103142;-75
2021/06/15 08:58:45;;;;;;;5.75;4.33;;;;;;;24.19;43.33;100458.23;153938;1101;103237;-74
2021/06/15 09:01:53;;;;;;;8.33;4.73;;;;;;;24.27;43.43;100454.31;153978;1101;103097;-75
2021/06/15 09:04:58;;;;;;;5.60;4.27;;;;;;;24.29;43.57;100460.36;153933;1101;103218;-74
2021/06/15 09:08:06;;;;;;;6.18;4.93;;;;;;;24.29;43.08;100463.09;154006;1097;103147;-75
2021/06/15 09:11:11;;;;;;;9.08;4.93;;;;;;;24.24;42.83;100454.78;153912;1101;103218;-74
2021/06/15 09:14:17;;;;;;;6.63;4.97;;;;;;;24.24;41.80;100461.05;153953;1101;103110;-75
2021/06/15 09:17:36;;;;;;;8.97;5.03;;;;;;;24.10;42.87;100454.20;153954;1095;103589;-74
2021/06/15 09:20:42;;;;;;;6.63;5.07;;;;;;;24.24;43.67;100457.51;153938;1101;103282;-74
2021/06/15 09:23:47;;;;;;;5.25;4.35;;;;;;;24.40;43.06;100459.48;153987;1101;103070;-75
2021/06/15 09:27:05;;;;;;;7.67;4.53;;;;;;;24.52;42.96;100451.34;153941;1101;103144;-74
2021/06/15 09:30:14;;;;;;;6.03;4.70;;;;;;;24.61;42.72;100449.05;153995;1097;103491;-75
2021/06/15 09:33:19;;;;;;;6.63;4.60;;;;;;;24.70;43.04;100450.33;154114;1101;103139;-73
2021/06/15 09:36:33;;;;;;;7.15;4.78;;;;;;;24.89;42.80;100454.53;154018;1094;103228;-73
2021/06/15 09:39:39;;;;;;;7.80;4.88;;;;;;;25.04;40.52;100443.09;154037;1101;103225;-74
2021/06/15 09:42:57;;;;;;;5.28;4.30;;;;;;;25.08;40.27;100449.71;153996;1095;103126;-73
2021/06/15 09:46:02;;;;;;;5.97;4.37;;;;;;;25.01;41.56;100434.55;153939;1097;103133;-74
2021/06/15 09:49:09;;;;;;;5.07;4.07;;;;;;;25.08;41.59;100438.79;153973;1095;103100;-74
2021/06/15 09:52:17;;;;;;;5.65;3.98;;;;;;;25.18;41.16;100440.05;154036;1096;103267;-74
2021/06/15 09:55:22;;;;;;;5.35;4.10;;;;;;;25.14;41.59;100441.63;153966;1095;103225;-74
2021/06/15 09:58:45;;;;;;;5.55;4.20;;;;;;;25.14;41.79;100442.45;153968;1095;103192;-74
2021/06/15 10:01:57;;;;;;;5.50;4.05;;;;;;;25.21;41.13;100439.55;154020;1101;103195;-74
2021/06/15 10:05:21;;;;;;;7.40;4.15;;;;;;;25.21;40.86;100436.81;154032;1101;103148;-74
2021/06/15 10:08:44;;;;;;;5.50;4.10;;;;;;;25.18;41.21;100446.34;154000;1101;103125;-74
2021/06/15 10:11:49;;;;;;;5.73;4.45;;;;;;;25.22;41.12;100446.68;153987;1101;103240;-73
2021/06/15 10:14:56;;;;;;;6.55;4.53;;;;;;;25.16;40.83;100444.94;153952;1101;103157;-74
2021/06/15 10:18:03;;;;;;;6.47;4.17;;;;;;;25.13;41.44;100439.95;154104;1101;103196;-74
2021/06/15 10:21:08;;;;;;;7.87;4.80;;;;;;;25.06;41.04;100438.20;154003;1095;103170;-75
2021/06/15 10:24:15;;;;;;;5.48;4.35;;;;;;;25.12;41.02;100427.39;153960;1096;103218;-74
2021/06/15 10:27:20;;;;;;;6.13;4.10;;;;;;;25.16;41.15;100423.09;153988;1101;103104;-73
2021/06/15 10:30:33;;;;;;;4.80;4.00;;;;;;;25.10;40.35;100427.63;153945;1101;103148;-73
2021/06/15 10:33:46;;;;;;;6.18;4.08;;;;;;;25.05;40.23;100422.88;153940;1096;103173;-75
2021/06/15 10:36:51;;;;;;;6.58;4.48;;;;;;;24.98;40.27;100416.77;154029;1095;103113;-74
2021/06/15 10:39:56;;;;;;;6.73;4.57;;;;;;;24.97;40.18;100420.56;154071;1097;103260;-73
2021/06/15 10:43:22;;;;;;;6.50;4.40;;;;;;;25.00;40.95;100422.81;154070;1101;103657;-73
2021/06/15 10:46:39;;;;;;;5.83;4.57;;;;;;;24.99;39.98;100429.33;153934;1101;103623;-74
2021/06/15 10:53:36;;;;;;;5.97;4.13;;;;;;;25.00;39.90;100420.08;153983;1089;103189;-75
2021/06/15 10:56:38;;;;;;;;;;;;;;;25.06;39.86;100418.28;154016;1101;103153;-74
2021/06/15 11:00:12;;;;;;;6.43;4.23;;;;;;;25.18;39.34;100410.02;153972;1101;103128;-74
2021/06/15 11:03:25;;;;;;;6.63;4.10;;;;;;;25.28;39.55;100426.60;153958;1096;103602;-74
2021/06/15 11:06:55;;;;;;;4.80;4.10;;;;;;;25.43;39.54;100402.28;154014;1101;103315;-74
2021/06/15 11:09:58;;;;;;;6.97;4.00;;;;;;;25.61;39.46;100398.45;154004;1101;103192;-74
2021/06/15 11:13:07;;;;;;;7.00;4.13;;;;;;;25.70;39.26;100406.26;153930;1101;103149;-74
2021/06/15 11:16:27;;;;;;;6.10;4.30;;;;;;;25.74;39.28;100396.48;154026;1096;103582;-75
2021/06/15 11:19:38;;;;;;;7.93;4.40;;;;;;;25.77;38.99;100401.42;153994;1095;103187;-73
2021/06/15 11:23:15;;;;;;;5.10;3.90;;;;;;;25.84;39.10;100389.23;154046;1101;103191;-73
2021/06/15 11:26:19;;;;;;;6.80;4.37;;;;;;;25.87;38.49;100385.19;154010;1095;103183;-74
2021/06/15 11:29:33;;;;;;;5.73;4.17;;;;;;;25.83;38.88;100386.78;153972;1101;103195;-74
2021/06/15 11:32:36;;;;;;;4.20;3.77;;;;;;;25.83;38.86;100379.39;154015;1097;103192;-74
2021/06/15 11:35:42;;;;;;;7.00;4.03;;;;;;;25.89;38.87;100377.56;153934;1096;103288;-74
2021/06/15 11:39:41;;;;;;;5.77;3.90;;;;;;;25.92;38.75;100366.14;153989;1101;103280;-74
2021/06/15 11:42:48;;;;;;;6.17;4.00;;;;;;;25.72;36.92;100369.39;153982;1101;103195;-75
2021/06/15 11:45:52;;;;;;;5.00;3.80;;;;;;;25.62;38.56;100374.72;153998;1101;103557;-73
2021/06/15 11:49:10;;;;;;;5.00;3.40;;;;;;;25.62;38.27;100378.27;153911;1097;103648;-75
2021/06/15 11:52:16;;;;;;;5.00;3.33;;;;;;;25.61;37.65;100364.84;153941;1101;103133;-74
2021/06/15 11:55:28;;;;;;;5.47;3.83;;;;;;;25.59;38.04;100356.89;153931;1101;103265;-74
2021/06/15 11:58:32;;;;;;;4.33;3.73;;;;;;;25.62;37.87;100355.59;153993;1101;103192;-76
2021/06/15 12:01:37;;;;;;;6.63;3.60;;;;;;;25.60;37.85;100363.21;153986;1101;103576;-74
2021/06/15 12:04:40;;;;;;;4.37;3.13;;;;;;;25.55;37.02;100349.45;153989;1101;103125;-74
2021/06/15 12:07:51;;;;;;;4.33;3.30;;;;;;;25.51;37.36;100359.23;153985;1096;103214;-74
2021/06/15 12:10:54;;;;;;;5.35;3.50;;;;;;;25.56;37.80;100362.88;153970;1101;103205;-74
2021/06/15 12:13:57;;;;;;;4.47;3.10;;;;;;;25.60;37.14;100346.81;153954;1101;103133;-74
2021/06/15 12:17:04;;;;;;;5.63;3.33;;;;;;;25.56;37.06;100341.02;153977;1097;103154;-74
2021/06/15 12:20:23;;;;;;;5.60;3.00;;;;;;;25.54;37.10;100339.59;153932;1101;103187;-74
2021/06/15 12:23:31;;;;;;;4.30;3.23;;;;;;;25.52;35.95;100339.87;154015;1095;103100;-76
2021/06/15 12:26:36;;;;;;;4.87;3.33;;;;;;;25.25;36.51;100336.96;154011;1095;103311;-74
2021/06/15 12:29:39;;;;;;;5.77;3.37;;;;;;;25.30;35.44;100345.25;154046;1101;103222;-75
2021/06/15 12:32:46;;;;;;;4.50;3.15;;;;;;;25.38;37.21;100333.08;153936;1101;103124;-75
2021/06/15 12:35:49;;;;;;;4.97;3.50;;;;;;;25.47;36.80;100326.94;154031;1101;103514;-73
2021/06/15 12:38:54;;;;;;;4.90;3.15;;;;;;;25.51;36.66;100331.92;153969;1096;103193;-74
2021/06/15 12:41:59;;;;;;;4.60;3.03;;;;;;;25.56;36.69;100326.51;154017;1101;103256;-73
2021/06/15 12:45:02;;;;;;;4.67;3.40;;;;;;;25.65;36.86;100319.54;153990;1101;103221;-73
2021/06/15 12:48:20;;;;;;;4.83;3.73;;;;;;;25.79;36.99;100311.80;153983;1101;103248;-75
2021/06/15 12:51:26;;;;;;;5.87;3.50;;;;;;;25.85;36.61;100306.16;153947;1097;103104;-74
2021/06/15 12:54:32;;;;;;;4.83;3.53;;;;;;;25.89;36.76;100302.94;154002;1101;103254;-73
2021/06/15 12:57:35;;;;;;;5.05;3.60;;;;;;;25.94;36.87;100298.36;154000;1096;103178;-74
2021/06/15 13:00:43;;;;;;;6.95;3.40;;;;;;;26.04;36.28;100303.16;153997;1096;103234;-74
2021/06/15 13:03:50;;;;;;;7.27;3.60;;;;;;;26.11;36.24;100302.95;154149;1101;103194;-73
2021/06/15 13:06:55;;;;;;;4.20;3.30;;;;;;;26.23;36.65;100301.75;153935;1101;103235;-74
2021/06/15 13:10:13;;;;;;;4.87;3.43;;;;;;;26.24;36.11;100305.30;154018;1097;103560;-74
2021/06/15 13:13:17;;;;;;;4.80;3.30;;;;;;;26.29;35.98;100305.37;154060;1101;103257;-74
2021/06/15 13:16:21;;;;;;;4.17;3.33;;;;;;;26.31;35.88;100305.94;154052;1101;103106;-74
2021/06/15 13:19:24;;;;;;;3.60;3.30;;;;;;;26.33;36.04;100294.72;154015;1096;103148;-74
2021/06/15 13:22:37;;;;;;;3.93;3.33;;;;;;;26.45;36.01;100288.02;154097;1101;103191;-74
2021/06/15 13:25:40;;;;;;;5.23;3.63;;;;;;;26.62;36.28;100298.91;154087;1101;103157;-74
2021/06/15 13:28:58;;;;;;;5.45;3.30;;;;;;;26.77;35.82;100289.17;154050;1101;103257;-74
2021/06/15 13:32:15;;;;;;;5.83;3.30;;;;;;;26.90;35.83;100299.69;154115;1101;103128;-74
2021/06/15 13:35:26;;;;;;;5.63;3.93;;;;;;;27.00;35.83;100288.84;154082;1101;103166;-75
2021/06/15 13:38:30;;;;;;;4.10;3.50;;;;;;;27.08;35.96;100283.95;154017;1101;103195;-75
2021/06/15 13:41:34;;;;;;;4.47;3.67;;;;;;;27.23;36.03;100282.17;154740;1093;103575;-74
2021/06/15 13:44:37;;;;;;;6.47;3.90;;;;;;;27.33;35.67;100281.45;154738;1098;103199;-74
2021/06/15 13:47:41;;;;;;;4.90;3.83;;;;;;;27.31;34.40;100275.41;154653;1093;103192;-74
2021/06/15 13:50:46;;;;;;;5.90;3.80;;;;;;;27.36;35.67;100263.64;154650;1098;103193;-75
2021/06/15 13:53:49;;;;;;;5.07;3.57;;;;;;;27.22;34.56;100269.55;154618;1098;103193;-74
2021/06/15 13:56:53;;;;;;;4.45;3.68;;;;;;;27.00;34.64;100277.89;154667;1098;103241;-74
2021/06/15 13:59:56;;;;;;;4.37;3.90;;;;;;;27.03;34.89;100282.83;154039;1101;103353;-74
2021/06/15 14:03:01;;;;;;;5.10;3.67;;;;;;;27.11;34.52;100264.27;154653;1098;103155;-74
2021/06/15 14:06:05;;;;;;;4.70;3.80;;;;;;;27.27;35.33;100262.48;154721;1093;103127;-74
2021/06/15 14:09:08;;;;;;;4.05;3.65;;;;;;;27.36;35.10;100269.94;154617;1098;104726;-74
2021/06/15 14:12:13;;;;;;;4.90;3.63;;;;;;;27.55;34.53;100277.73;154648;1098;103158;-74
2021/06/15 14:15:18;;;;;;;6.87;4.30;;;;;;;27.59;33.98;100278.84;154228;1098;103281;-72
2021/06/15 14:18:22;;;;;;;6.15;4.40;;;;;;;27.47;34.34;100278.24;154674;1093;103211;-73
2021/06/15 14:21:25;;;;;;;4.27;3.87;;;;;;;27.39;34.46;100274.91;154632;1098;103126;-73